KHIE/HIE METAR and TAF weather

Enter ICAO airport designator
Station Type Date Time Source
KHIE METAR 2021/09/23 23:52 UTC NOAA

KHIE 232352Z AUTO 15008KT 10SM CLR 21/16 A3009 RMK AO2 SLP187 60000 T02110161 10244 20206 51013


Station Type Date Time Source
KHIE Decoded METAR 2021/09/23 23:52 UTC NOAA

MT WASHINGTON REGIONAL AIRPORT , NH, United States (KHIE) 44-22N 71-33W 318M
Sep 23, 2021 - 07:52 PM EDT / 2021.09.23 2352 UTC
Wind: from the SSE (150 degrees) at 9 MPH (8 KT):0
Visibility: 10 mile(s):0
Sky conditions: clear
Temperature: 70.0 F (21.1 C)
Dew Point: 61.0 F (16.1 C)
Relative Humidity: 73%
Pressure (altimeter): 30.09 in. Hg (1018 hPa)
Pressure tendency: 0.04 inches (1.3 hPa) higher than three hours ago
ob: KHIE 232352Z AUTO 15008KT 10SM CLR 21/16 A3009 RMK AO2 SLP187 60000 T02110161 10244 20206 51013
cycle: 0

Station Type Date Time Source
KHIE TAF 2021/09/23 22:18 UTC NOAA

TAF
AMD KHIE 232214Z 2322/2418 13010KT P6SM OVC050
TEMPO 2322/2323 12012G20KT 5SM -RA BKN025
FM240500 14008KT 2SM BR BKN002
FM241500 15009G15KT 3SM -SHRA OVC005

Example: see airport list